createdAt,value
2018-04-27T00:00:26.965Z,3.60
2018-04-27T00:02:54.431Z,3.30
2018-04-27T00:05:21.889Z,6.20
2018-04-27T00:07:49.487Z,3.83
2018-04-27T00:10:17.735Z,5.07
2018-04-27T00:12:45.191Z,5.75
2018-04-27T00:15:12.807Z,4.07
2018-04-27T00:17:40.259Z,4.35
2018-04-27T00:20:07.723Z,3.95
2018-04-27T00:22:35.182Z,6.10
2018-04-27T00:25:02.679Z,5.93
2018-04-27T00:27:30.235Z,5.50
2018-04-27T00:29:57.691Z,3.37
2018-04-27T00:32:25.252Z,3.90
2018-04-27T00:34:52.708Z,4.85
2018-04-27T00:37:20.258Z,6.20
2018-04-27T00:39:47.823Z,5.65
2018-04-27T00:42:15.386Z,5.70
2018-04-27T00:44:42.935Z,7.28
2018-04-27T00:47:10.391Z,6.85
2018-04-27T00:49:37.854Z,4.50
2018-04-27T00:52:05.312Z,7.12
2018-04-27T00:54:32.829Z,4.78
2018-04-27T00:57:00.291Z,6.80
2018-04-27T00:59:27.800Z,6.28
2018-04-27T01:01:55.263Z,6.85
2018-04-27T01:04:23.523Z,9.20
2018-04-27T01:06:51.012Z,10.40
2018-04-27T01:09:18.526Z,7.50
2018-04-27T01:11:45.985Z,7.03
2018-04-27T01:14:13.445Z,8.48
2018-04-27T01:16:40.904Z,7.35
2018-04-27T01:19:08.519Z,7.78
2018-04-27T01:21:36.023Z,6.12
2018-04-27T01:24:04.254Z,8.55
2018-04-27T01:26:31.707Z,7.15
2018-04-27T01:28:59.171Z,7.87
2018-04-27T01:31:26.723Z,9.32
2018-04-27T01:33:54.179Z,7.30
2018-04-27T01:36:21.631Z,4.68
2018-04-27T01:38:49.095Z,7.60
2018-04-27T01:41:16.602Z,5.57
2018-04-27T01:43:44.828Z,9.32
2018-04-27T01:46:12.389Z,8.20
2018-04-27T01:48:39.847Z,6.43
2018-04-27T01:51:07.312Z,5.90
2018-04-27T01:53:34.776Z,6.53
2018-04-27T01:56:02.240Z,16.75
2018-04-27T01:58:29.707Z,9.73
2018-04-27T02:00:57.923Z,5.50
2018-04-27T02:03:25.379Z,6.93
2018-04-27T02:05:52.836Z,7.95
2018-04-27T02:08:20.357Z,7.15
2018-04-27T02:10:47.823Z,12.80
2018-04-27T02:13:15.294Z,5.10
2018-04-27T02:15:43.508Z,6.95
2018-04-27T02:18:10.999Z,7.40
2018-04-27T02:20:38.446Z,6.12
2018-04-27T02:23:05.895Z,5.72
2018-04-27T02:25:33.379Z,5.85
2018-04-27T02:28:00.955Z,6.82
2018-04-27T02:30:29.187Z,5.18
2018-04-27T02:32:56.662Z,6.93
2018-04-27T02:35:24.228Z,8.90
2018-04-27T02:37:51.680Z,8.00
2018-04-27T02:40:19.256Z,9.00
2018-04-27T02:42:47.474Z,9.85
2018-04-27T02:45:14.963Z,9.45
2018-04-27T02:47:42.525Z,10.48
2018-04-27T02:50:10.006Z,8.05
2018-04-27T02:52:38.230Z,6.20
2018-04-27T02:55:05.773Z,5.50
2018-04-27T02:57:33.215Z,6.87
2018-04-27T03:00:00.669Z,6.72
2018-04-27T03:02:28.127Z,7.85
2018-04-27T03:04:55.589Z,5.85
2018-04-27T03:07:23.054Z,7.47
2018-04-27T03:09:50.537Z,12.68
2018-04-27T03:12:18.010Z,6.50
2018-04-27T03:14:45.579Z,9.25
2018-04-27T03:17:13.132Z,12.07
2018-04-27T03:19:40.597Z,7.75
2018-04-27T03:22:08.139Z,6.12
2018-04-27T03:24:35.712Z,11.12
2018-04-27T03:27:03.179Z,9.57
2018-04-27T03:29:30.639Z,9.98
2018-04-27T03:31:58.853Z,12.52
2018-04-27T03:34:26.395Z,8.20
2018-04-27T03:36:53.908Z,6.35
2018-04-27T03:39:21.469Z,11.18
2018-04-27T03:41:48.933Z,9.65
2018-04-27T03:44:16.475Z,9.63
2018-04-27T03:46:44.035Z,6.55
2018-04-27T03:49:11.601Z,7.50
2018-04-27T03:51:39.063Z,10.77
2018-04-27T03:54:06.519Z,9.02
2018-04-27T03:56:34.064Z,8.18
2018-04-27T03:59:01.587Z,12.80
2018-04-27T04:01:41.236Z,11.90
2018-04-27T04:04:20.612Z,7.78
2018-04-27T04:06:48.198Z,7.32
2018-04-27T04:09:16.500Z,9.95
2018-04-27T04:11:44.002Z,8.40
2018-04-27T04:14:11.455Z,8.23
2018-04-27T04:16:38.944Z,7.82
2018-04-27T04:19:07.159Z,7.50
2018-04-27T04:21:34.622Z,6.65
2018-04-27T04:24:02.104Z,8.32
2018-04-27T04:26:29.660Z,8.90
2018-04-27T04:28:57.124Z,6.72
2018-04-27T04:31:24.674Z,14.68
2018-04-27T04:33:52.135Z,7.53
2018-04-27T04:36:19.587Z,8.25
2018-04-27T04:38:47.142Z,10.30
2018-04-27T04:41:14.602Z,9.48
2018-04-27T04:43:42.059Z,8.55
2018-04-27T04:46:09.530Z,12.05
2018-04-27T04:48:37.761Z,7.85
2018-04-27T04:51:05.224Z,8.23
2018-04-27T04:53:32.683Z,9.38
2018-04-27T04:56:00.139Z,16.90
2018-04-27T04:58:27.603Z,11.12
2018-04-27T05:00:55.066Z,16.23
2018-04-27T05:03:22.525Z,19.83
2018-04-27T05:05:49.988Z,9.20
2018-04-27T05:08:17.616Z,14.05
2018-04-27T05:10:45.022Z,13.60
2018-04-27T05:13:12.487Z,13.75
2018-04-27T05:15:40.712Z,11.40
2018-04-27T05:18:28.938Z,12.52
2018-04-27T05:20:56.414Z,13.90
2018-04-27T05:23:23.898Z,12.30
2018-04-27T05:25:51.347Z,14.95
2018-04-27T05:28:18.823Z,22.55
2018-04-27T05:30:47.048Z,12.63
2018-04-27T05:33:14.540Z,15.27
2018-04-27T05:35:42.008Z,13.13
2018-04-27T05:38:09.463Z,13.60
2018-04-27T05:40:37.026Z,16.33
2018-04-27T05:43:05.253Z,18.58
2018-04-27T05:45:32.720Z,16.52
2018-04-27T05:48:00.170Z,16.50
2018-04-27T05:50:27.636Z,13.00
2018-04-27T05:52:55.094Z,11.88
2018-04-27T05:55:22.564Z,12.07
2018-04-27T05:57:50.028Z,15.73
2018-04-27T06:00:17.583Z,18.73
2018-04-27T06:02:45.234Z,17.10
2018-04-27T06:05:12.703Z,20.37
2018-04-27T06:07:40.261Z,15.80
2018-04-27T06:10:07.756Z,15.52
2018-04-27T06:12:35.188Z,18.08
2018-04-27T06:15:03.423Z,17.00
2018-04-27T06:17:30.878Z,17.00
2018-04-27T06:19:58.367Z,15.80
2018-04-27T06:22:25.818Z,13.32
2018-04-27T06:24:53.376Z,14.48
2018-04-27T06:27:20.834Z,19.98
2018-04-27T06:29:49.811Z,15.57
2018-04-27T06:32:17.283Z,16.05
2018-04-27T06:34:44.751Z,17.05
2018-04-27T06:37:12.988Z,17.25
2018-04-27T06:39:40.528Z,19.70
2018-04-27T06:42:08.046Z,18.30
2018-04-27T06:44:35.528Z,16.92
2018-04-27T06:47:03.053Z,16.48
2018-04-27T06:49:30.531Z,23.70
2018-04-27T06:51:58.762Z,20.15
2018-04-27T06:54:26.214Z,18.58
2018-04-27T06:56:53.803Z,15.25
2018-04-27T06:59:21.399Z,15.68
2018-04-27T07:01:49.643Z,17.95
2018-04-27T07:04:17.862Z,22.00
2018-04-27T07:06:45.342Z,19.65
2018-04-27T07:09:12.807Z,14.40
2018-04-27T07:11:40.316Z,14.95
2018-04-27T07:14:07.841Z,16.95
2018-04-27T07:16:35.343Z,18.30
2018-04-27T07:19:02.808Z,14.50
2018-04-27T07:21:30.296Z,19.92
2018-04-27T07:23:57.755Z,22.00
2018-04-27T07:26:25.246Z,18.00
2018-04-27T07:28:53.491Z,24.35
2018-04-27T07:31:21.004Z,17.00
2018-04-27T07:33:48.506Z,16.65
2018-04-27T07:36:15.991Z,18.23
2018-04-27T07:38:43.467Z,17.40
2018-04-27T07:41:10.959Z,22.92
2018-04-27T07:43:38.447Z,17.23
2018-04-27T07:46:06.692Z,19.75
2018-04-27T07:48:34.150Z,17.47
2018-04-27T07:51:01.686Z,16.20
2018-04-27T07:53:29.191Z,21.12
2018-04-27T07:55:57.414Z,16.65
2018-04-27T07:58:24.892Z,19.83
2018-04-27T08:00:52.380Z,17.67
2018-04-27T08:03:19.934Z,20.65
2018-04-27T08:05:47.498Z,18.35
2018-04-27T08:08:15.815Z,20.45
2018-04-27T08:10:43.247Z,16.30
2018-04-27T08:13:11.479Z,23.97
2018-04-27T08:15:38.962Z,25.90
2018-04-27T08:18:06.447Z,15.97
2018-04-27T08:20:33.930Z,14.03
2018-04-27T08:23:01.432Z,13.33
2018-04-27T08:25:30.793Z,14.00
2018-04-27T08:27:58.293Z,34.93
2018-04-27T08:30:25.767Z,13.37
2018-04-27T08:32:54.099Z,14.87
2018-04-27T08:35:21.662Z,17.80
2018-04-27T08:37:49.259Z,12.57
2018-04-27T08:40:17.597Z,19.70
2018-04-27T08:42:45.304Z,17.10
2018-04-27T08:45:13.630Z,16.73
2018-04-27T08:47:41.398Z,16.50
2018-04-27T08:50:09.160Z,11.10
2018-04-27T08:52:36.758Z,14.27
2018-04-27T08:55:05.015Z,11.57
2018-04-27T08:57:32.593Z,18.73
2018-04-27T09:00:00.862Z,18.20
2018-04-27T09:02:28.411Z,13.70
2018-04-27T09:04:55.891Z,14.03
2018-04-27T09:07:23.370Z,13.50
2018-04-27T09:09:50.876Z,19.40
2018-04-27T09:12:18.391Z,14.17
2018-04-27T09:14:45.889Z,20.27
2018-04-27T09:17:13.362Z,18.63
2018-04-27T09:19:40.838Z,14.73
2018-04-27T09:22:09.065Z,14.33
2018-04-27T09:24:36.545Z,12.33
2018-04-27T09:27:04.015Z,13.30
2018-04-27T09:29:31.482Z,15.57
2018-04-27T09:31:59.717Z,10.77
2018-04-27T09:34:27.294Z,14.13
2018-04-27T09:36:54.756Z,14.03
2018-04-27T09:39:22.239Z,10.87
2018-04-27T09:41:50.462Z,11.13
2018-04-27T09:44:17.941Z,11.27
2018-04-27T09:46:46.170Z,9.43
2018-04-27T09:49:13.634Z,10.90
2018-04-27T09:51:41.100Z,11.33
2018-04-27T09:54:08.565Z,13.50
2018-04-27T09:56:36.030Z,9.07
2018-04-27T09:59:03.506Z,6.40
2018-04-27T10:01:30.961Z,13.70
2018-04-27T10:03:58.513Z,9.83
2018-04-27T10:06:26.021Z,20.90
2018-04-27T10:08:53.528Z,26.43
2018-04-27T10:11:21.090Z,11.83
2018-04-27T10:13:48.630Z,9.00
2018-04-27T10:16:16.089Z,8.20
2018-04-27T10:18:43.610Z,8.37
2018-04-27T10:21:11.121Z,9.20
2018-04-27T10:23:38.580Z,8.23
2018-04-27T10:26:06.146Z,9.37
2018-04-27T10:28:34.371Z,9.37
2018-04-27T10:31:01.876Z,9.43
2018-04-27T10:33:29.315Z,6.37
2018-04-27T10:35:57.560Z,10.20
2018-04-27T10:38:25.039Z,7.90
2018-04-27T10:40:52.740Z,6.93
2018-04-27T10:43:20.955Z,8.80
2018-04-27T10:45:48.438Z,7.57
2018-04-27T10:48:16.017Z,9.27
2018-04-27T10:50:43.471Z,9.80
2018-04-27T10:53:11.007Z,13.70
2018-04-27T10:55:38.575Z,6.03
2018-04-27T10:58:06.043Z,5.60
2018-04-27T11:00:34.283Z,6.30
2018-04-27T11:03:01.768Z,9.67
2018-04-27T11:05:29.243Z,10.00
2018-04-27T11:07:57.499Z,8.70
2018-04-27T11:10:25.060Z,9.40
2018-04-27T11:12:53.332Z,5.60
2018-04-27T11:15:22.302Z,8.17
2018-04-27T11:17:49.760Z,8.13
2018-04-27T11:20:17.334Z,9.03
2018-04-27T11:22:45.515Z,6.83
2018-04-27T11:25:13.028Z,7.30
2018-04-27T11:27:40.504Z,11.33
2018-04-27T11:30:07.998Z,9.43
2018-04-27T11:32:36.231Z,18.33
2018-04-27T11:35:04.312Z,7.07
2018-04-27T11:37:32.075Z,11.63
2018-04-27T11:39:59.887Z,10.17
2018-04-27T11:42:28.226Z,5.63
2018-04-27T11:44:55.738Z,7.33
2018-04-27T11:47:23.252Z,8.10
2018-04-27T11:49:52.224Z,7.60
2018-04-27T11:52:19.704Z,16.00
2018-04-27T11:54:47.944Z,10.27
2018-04-27T11:57:15.450Z,8.00
2018-04-27T11:59:42.911Z,6.53
2018-04-27T12:02:11.858Z,6.00
2018-04-27T12:04:39.310Z,10.87
2018-04-27T12:07:06.856Z,6.20
2018-04-27T12:09:34.319Z,7.47
2018-04-27T12:12:01.813Z,7.00
2018-04-27T12:14:29.272Z,7.47
2018-04-27T12:16:56.744Z,8.87
2018-04-27T12:19:24.996Z,6.10
2018-04-27T12:21:52.560Z,7.07
2018-04-27T12:24:20.164Z,5.63
2018-04-27T12:26:48.370Z,7.00
2018-04-27T12:29:15.833Z,5.43
2018-04-27T12:31:43.381Z,7.30
2018-04-27T12:34:10.760Z,8.47
2018-04-27T12:36:39.756Z,5.87
2018-04-27T12:39:08.728Z,6.80
2018-04-27T12:41:36.340Z,9.80
2018-04-27T12:44:04.565Z,9.63
2018-04-27T12:46:32.134Z,6.00
2018-04-27T12:48:59.596Z,4.33
2018-04-27T12:51:27.066Z,6.13
2018-04-27T12:53:55.306Z,6.37
2018-04-27T12:56:22.767Z,8.47
2018-04-27T12:58:50.248Z,8.83
2018-04-27T13:01:17.720Z,6.40
2018-04-27T13:03:45.959Z,9.23
2018-04-27T13:06:13.414Z,9.87
2018-04-27T13:08:40.878Z,5.40
2018-04-27T13:11:08.447Z,9.53
2018-04-27T13:13:37.417Z,4.47
2018-04-27T13:16:04.921Z,11.50
2018-04-27T13:18:33.152Z,18.10
2018-04-27T13:21:00.617Z,14.73
2018-04-27T13:23:28.140Z,6.90
2018-04-27T13:25:55.616Z,8.07
2018-04-27T13:28:23.095Z,6.70
2018-04-27T13:30:50.607Z,5.33
2018-04-27T13:33:18.152Z,12.93
2018-04-27T13:35:45.636Z,3.90
2018-04-27T13:38:13.098Z,5.00
2018-04-27T13:40:40.572Z,7.87
2018-04-27T13:43:08.165Z,16.07
2018-04-27T13:45:36.490Z,9.90
2018-04-27T13:48:04.081Z,25.13
2018-04-27T13:50:31.707Z,8.93
2018-04-27T13:52:59.257Z,26.17
2018-04-27T13:55:27.512Z,13.63
2018-04-27T13:57:55.803Z,5.57
2018-04-27T14:00:23.423Z,3.97
2018-04-27T14:02:51.088Z,9.10
2018-04-27T14:05:18.560Z,10.67
2018-04-27T14:07:46.898Z,5.80
2018-04-27T14:10:14.488Z,4.10
2018-04-27T14:12:42.839Z,5.60
2018-04-27T14:15:10.404Z,2.60
2018-04-27T14:17:37.959Z,9.33
2018-04-27T14:20:05.483Z,9.30
2018-04-27T14:22:33.695Z,5.43
2018-04-27T14:25:01.150Z,4.43
2018-04-27T14:27:29.424Z,3.03
2018-04-27T14:29:56.878Z,8.40
2018-04-27T14:32:24.370Z,5.90
2018-04-27T14:34:52.887Z,7.40
2018-04-27T14:37:20.335Z,7.63
2018-04-27T14:39:47.799Z,8.00
2018-04-27T14:42:15.266Z,8.80
2018-04-27T14:44:42.739Z,6.37
2018-04-27T14:47:10.194Z,3.77
2018-04-27T14:49:37.768Z,5.00
2018-04-27T14:52:05.315Z,7.87
2018-04-27T14:54:32.786Z,8.00
2018-04-27T14:57:00.291Z,4.87
2018-04-27T14:59:27.750Z,5.27
2018-04-27T15:01:55.221Z,3.77
2018-04-27T15:04:22.764Z,3.60
2018-04-27T15:06:50.231Z,7.87
2018-04-27T15:09:17.691Z,4.57
2018-04-27T15:11:45.191Z,7.03
2018-04-27T15:14:12.647Z,6.20
2018-04-27T15:16:40.287Z,8.30
2018-04-27T15:19:07.772Z,7.20
2018-04-27T15:21:36.086Z,5.03
2018-04-27T15:24:03.557Z,9.20
2018-04-27T15:26:31.027Z,3.67
2018-04-27T15:28:58.482Z,4.50
2018-04-27T15:31:25.935Z,5.73
2018-04-27T15:33:53.412Z,6.87
2018-04-27T15:36:20.971Z,5.60
2018-04-27T15:38:49.203Z,2.80
2018-04-27T15:41:16.671Z,5.80
2018-04-27T15:43:44.142Z,3.60
2018-04-27T15:46:11.600Z,9.10
2018-04-27T15:48:39.184Z,5.03
2018-04-27T15:51:06.638Z,15.27
2018-04-27T15:53:34.143Z,4.50
2018-04-27T15:56:01.608Z,3.60
2018-04-27T15:58:29.100Z,4.33
2018-04-27T16:00:57.743Z,15.13
2018-04-27T16:03:25.206Z,3.20
2018-04-27T16:05:52.694Z,7.03
2018-04-27T16:08:20.155Z,3.80
2018-04-27T16:10:48.388Z,7.33
2018-04-27T16:13:21.728Z,6.10
2018-04-27T16:15:49.180Z,4.27
2018-04-27T16:18:16.748Z,5.00
2018-04-27T16:20:44.255Z,7.77
2018-04-27T16:23:11.761Z,6.60
2018-04-27T16:25:40.090Z,4.00
2018-04-27T16:28:07.566Z,3.17
2018-04-27T16:30:35.060Z,9.93
2018-04-27T16:33:02.611Z,7.10
2018-04-27T16:35:30.070Z,9.37
2018-04-27T16:37:57.531Z,5.47
2018-04-27T16:40:25.085Z,3.37
2018-04-27T16:42:52.638Z,7.87
2018-04-27T16:45:20.095Z,7.70
2018-04-27T16:47:48.319Z,3.47
2018-04-27T16:50:15.887Z,6.07
2018-04-27T16:52:43.350Z,5.03
2018-04-27T16:55:10.821Z,10.10
2018-04-27T16:57:38.286Z,4.30
2018-04-27T17:00:05.758Z,6.17
2018-04-27T17:02:33.216Z,5.70
2018-04-27T17:05:00.764Z,6.53
2018-04-27T17:07:28.308Z,4.33
2018-04-27T17:09:55.788Z,4.73
2018-04-27T17:12:23.351Z,6.60
2018-04-27T17:14:50.810Z,5.87
2018-04-27T17:17:18.269Z,5.80
2018-04-27T17:19:45.733Z,5.87
2018-04-27T17:22:13.962Z,9.50
2018-04-27T17:24:41.418Z,3.57
2018-04-27T17:27:08.907Z,2.40
2018-04-27T17:29:36.359Z,3.77
2018-04-27T17:32:04.745Z,6.07
2018-04-27T17:34:32.309Z,1.60
2018-04-27T17:37:00.024Z,4.20
2018-04-27T17:39:27.321Z,4.87
2018-04-27T17:41:54.876Z,7.00
2018-04-27T17:44:23.202Z,7.47
2018-04-27T17:46:50.611Z,2.60
2018-04-27T17:49:18.168Z,4.50
2018-04-27T17:51:46.405Z,9.17
2018-04-27T17:54:13.869Z,3.47
2018-04-27T17:56:41.371Z,3.53
2018-04-27T17:59:09.624Z,5.67
2018-04-27T18:01:37.191Z,4.17
2018-04-27T18:04:05.454Z,3.83
2018-04-27T18:06:32.913Z,4.30
2018-04-27T18:09:00.387Z,3.90
2018-04-27T18:11:29.361Z,3.80
2018-04-27T18:13:56.954Z,3.07
2018-04-27T18:16:25.186Z,4.63
2018-04-27T18:18:52.650Z,3.40
2018-04-27T18:21:20.123Z,2.13
2018-04-27T18:23:48.380Z,3.87
2018-04-27T18:26:15.962Z,3.73
2018-04-27T18:28:44.951Z,4.00
2018-04-27T18:31:13.174Z,7.20
2018-04-27T18:33:40.671Z,4.43
2018-04-27T18:36:08.350Z,6.83
2018-04-27T18:38:36.740Z,5.07
2018-04-27T18:41:05.099Z,8.47
2018-04-27T18:43:32.660Z,3.83
2018-04-27T18:46:01.157Z,3.67
2018-04-27T18:48:29.520Z,3.97
2018-04-27T18:50:57.782Z,8.70
2018-04-27T18:53:25.242Z,8.70
2018-04-27T18:55:52.732Z,5.33
2018-04-27T18:58:20.270Z,5.90
2018-04-27T19:00:47.837Z,12.37
2018-04-27T19:03:18.810Z,5.30
2018-04-27T19:05:47.044Z,4.47
2018-04-27T19:08:15.315Z,4.90
2018-04-27T19:10:45.476Z,4.87
2018-04-27T19:13:13.581Z,4.20
2018-04-27T19:15:41.064Z,4.57
2018-04-27T19:18:08.515Z,4.50
2018-04-27T19:20:36.999Z,5.67
2018-04-27T19:23:09.167Z,11.10
2018-04-27T19:25:44.204Z,8.93
2018-04-27T19:28:11.664Z,5.03
2018-04-27T19:30:39.923Z,6.90
2018-04-27T19:33:07.391Z,5.40
2018-04-27T19:35:34.857Z,4.83
2018-04-27T19:38:03.112Z,6.20
2018-04-27T19:40:30.714Z,4.40
2018-04-27T19:42:58.361Z,11.20
2018-04-27T19:45:25.792Z,7.40
2018-04-27T19:47:53.260Z,6.67
2018-04-27T19:50:21.523Z,4.80
2018-04-27T19:52:49.136Z,10.67
2018-04-27T19:55:16.595Z,4.13
2018-04-27T19:57:44.061Z,5.40
2018-04-27T20:00:11.553Z,9.07
2018-04-27T20:02:39.132Z,5.53
2018-04-27T20:05:09.015Z,8.33
2018-04-27T20:07:36.582Z,13.13
2018-04-27T20:10:06.331Z,3.73
2018-04-27T20:12:33.807Z,5.00
2018-04-27T20:15:01.276Z,8.00
2018-04-27T20:17:37.406Z,6.37
2018-04-27T20:20:15.187Z,4.87
2018-04-27T20:22:44.059Z,7.23
2018-04-27T20:25:12.228Z,5.33
2018-04-27T20:27:43.508Z,7.57
2018-04-27T20:30:12.365Z,8.63
2018-04-27T20:32:43.227Z,7.03
2018-04-27T20:35:15.094Z,6.90
2018-04-27T20:37:42.576Z,7.80
2018-04-27T20:40:14.751Z,6.67
2018-04-27T20:42:42.242Z,11.00
2018-04-27T20:45:10.498Z,6.53
2018-04-27T20:47:38.957Z,6.70
2018-04-27T20:50:06.558Z,10.03
2018-04-27T20:52:37.256Z,7.43
2018-04-27T20:55:08.304Z,8.00
2018-04-27T20:57:35.791Z,7.33
2018-04-27T21:00:03.273Z,9.13
2018-04-27T21:02:31.504Z,10.20
2018-04-27T21:04:58.973Z,7.20
2018-04-27T21:07:26.541Z,7.00
2018-04-27T21:09:54.005Z,10.90
2018-04-27T21:12:26.655Z,12.30
2018-04-27T21:14:54.115Z,10.23
2018-04-27T21:17:21.596Z,6.40
2018-04-27T21:19:49.828Z,9.23
2018-04-27T21:22:17.300Z,6.73
2018-04-27T21:24:44.820Z,6.87
2018-04-27T21:27:12.326Z,15.03
2018-04-27T21:29:39.902Z,9.27
2018-04-27T21:32:08.160Z,9.00
2018-04-27T21:34:35.619Z,7.47
2018-04-27T21:37:03.092Z,7.13
2018-04-27T21:39:31.332Z,5.13
2018-04-27T21:42:02.395Z,7.20
2018-04-27T21:44:35.487Z,9.20
2018-04-27T21:47:23.471Z,9.10
2018-04-27T21:49:51.078Z,8.80
2018-04-27T21:52:20.230Z,18.57
2018-04-27T21:54:48.631Z,10.60
2018-04-27T21:57:25.730Z,14.47
2018-04-27T21:59:54.930Z,12.73
2018-04-27T22:05:31.211Z,10.93
2018-04-27T22:07:58.666Z,5.27
2018-04-27T22:10:26.135Z,5.90
2018-04-27T22:12:54.407Z,8.00
2018-04-27T22:15:21.873Z,5.00
2018-04-27T22:17:49.420Z,7.47
2018-04-27T22:20:21.588Z,9.87
2018-04-27T22:22:49.148Z,9.93
2018-04-27T22:25:22.356Z,7.87
2018-04-27T22:27:51.327Z,8.90
2018-04-27T22:33:22.280Z,6.67
2018-04-27T22:35:52.204Z,8.93
2018-04-27T22:41:17.014Z,8.97
2018-04-27T22:43:47.228Z,7.57
2018-04-27T22:46:14.699Z,8.97
2018-04-27T22:48:45.678Z,16.93
2018-04-27T22:51:15.647Z,11.13
2018-04-27T22:53:49.758Z,10.80
2018-04-27T22:56:23.782Z,8.57
2018-04-27T22:58:51.351Z,11.37
2018-04-27T23:01:19.603Z,6.87
2018-04-27T23:03:47.064Z,8.20
2018-04-27T23:06:14.610Z,18.37
2018-04-27T23:08:43.011Z,21.43
2018-04-27T23:11:28.175Z,6.77
2018-04-27T23:16:52.700Z,7.13
2018-04-27T23:19:21.670Z,11.60
2018-04-27T23:21:56.823Z,10.40
2018-04-27T23:24:25.065Z,5.70
2018-04-27T23:26:53.190Z,7.30
2018-04-27T23:29:20.661Z,17.53
2018-04-27T23:31:49.741Z,10.73
2018-04-27T23:34:22.683Z,11.63
2018-04-27T23:36:50.154Z,7.80
2018-04-27T23:39:18.429Z,5.20
2018-04-27T23:41:46.708Z,16.27
2018-04-27T23:44:14.346Z,9.70
2018-04-27T23:46:41.823Z,9.30
2018-04-27T23:49:09.289Z,8.60
2018-04-27T23:51:37.570Z,11.90
2018-04-27T23:54:07.674Z,9.43
2018-04-27T23:56:51.547Z,5.90
2018-04-27T23:59:31.582Z,7.47
